sensor_id;sensor_type;location;lat;lon;timestamp;temperature;humidity
5786;DHT22;2919;48.630;9.000;2023-04-24T00:00:15;9.30;99.90
5786;DHT22;2919;48.630;9.000;2023-04-24T00:02:43;9.30;99.90
5786;DHT22;2919;48.630;9.000;2023-04-24T00:05:16;9.30;99.90
5786;DHT22;2919;48.630;9.000;2023-04-24T00:07:43;9.30;99.90
5786;DHT22;2919;48.630;9.000;2023-04-24T00:10:10;9.30;99.90
5786;DHT22;2919;48.630;9.000;2023-04-24T00:12:36;9.30;99.90
5786;DHT22;2919;48.630;9.000;2023-04-24T00:15:02;9.30;99.90
5786;DHT22;2919;48.630;9.000;2023-04-24T00:17:28;9.30;99.90
5786;DHT22;2919;48.630;9.000;2023-04-24T00:19:53;9.30;99.90
5786;DHT22;2919;48.630;9.000;2023-04-24T00:22:27;9.30;99.90
5786;DHT22;2919;48.630;9.000;2023-04-24T00:24:53;9.30;99.90
5786;DHT22;2919;48.630;9.000;2023-04-24T00:27:19;9.30;99.90
5786;DHT22;2919;48.630;9.000;2023-04-24T00:29:44;9.40;99.90
5786;DHT22;2919;48.630;9.000;2023-04-24T00:32:10;9.40;99.90
5786;DHT22;2919;48.630;9.000;2023-04-24T00:34:36;9.40;99.90
5786;DHT22;2919;48.630;9.000;2023-04-24T00:37:01;9.50;99.90
5786;DHT22;2919;48.630;9.000;2023-04-24T00:39:27;9.50;99.90
5786;DHT22;2919;48.630;9.000;2023-04-24T00:41:53;9.60;99.90
5786;DHT22;2919;48.630;9.000;2023-04-24T00:44:19;9.70;99.90
5786;DHT22;2919;48.630;9.000;2023-04-24T00:46:45;9.70;99.90
5786;DHT22;2919;48.630;9.000;2023-04-24T00:49:12;9.80;99.90
5786;DHT22;2919;48.630;9.000;2023-04-24T00:51:38;9.70;99.90
5786;DHT22;2919;48.630;9.000;2023-04-24T00:54:06;9.80;99.90
5786;DHT22;2919;48.630;9.000;2023-04-24T00:56:31;9.80;99.90
5786;DHT22;2919;48.630;9.000;2023-04-24T00:58:57;9.90;99.90
5786;DHT22;2919;48.630;9.000;2023-04-24T01:01:24;9.80;99.90
5786;DHT22;2919;48.630;9.000;2023-04-24T01:03:51;9.80;99.90
5786;DHT22;2919;48.630;9.000;2023-04-24T01:06:16;9.80;99.90
5786;DHT22;2919;48.630;9.000;2023-04-24T01:08:43;9.80;99.90
5786;DHT22;2919;48.630;9.000;2023-04-24T01:11:10;9.80;99.90
5786;DHT22;2919;48.630;9.000;2023-04-24T01:13:36;9.80;99.90
5786;DHT22;2919;48.630;9.000;2023-04-24T01:16:02;9.80;99.90
5786;DHT22;2919;48.630;9.000;2023-04-24T01:18:28;9.80;99.90
5786;DHT22;2919;48.630;9.000;2023-04-24T01:20:57;9.80;99.90
5786;DHT22;2919;48.630;9.000;2023-04-24T01:23:23;9.70;99.90
5786;DHT22;2919;48.630;9.000;2023-04-24T01:25:49;9.70;99.90
5786;DHT22;2919;48.630;9.000;2023-04-24T01:28:16;9.70;99.90
5786;DHT22;2919;48.630;9.000;2023-04-24T01:30:41;9.70;99.90
5786;DHT22;2919;48.630;9.000;2023-04-24T01:33:07;9.60;99.90
5786;DHT22;2919;48.630;9.000;2023-04-24T01:35:33;9.60;99.90
5786;DHT22;2919;48.630;9.000;2023-04-24T01:37:59;9.60;99.90
5786;DHT22;2919;48.630;9.000;2023-04-24T01:40:25;9.60;99.90
5786;DHT22;2919;48.630;9.000;2023-04-24T01:42:51;9.60;99.90
5786;DHT22;2919;48.630;9.000;2023-04-24T01:45:17;9.60;99.90
5786;DHT22;2919;48.630;9.000;2023-04-24T01:47:44;9.60;99.90
5786;DHT22;2919;48.630;9.000;2023-04-24T01:50:10;9.60;99.90
5786;DHT22;2919;48.630;9.000;2023-04-24T01:52:36;9.60;99.90
5786;DHT22;2919;48.630;9.000;2023-04-24T01:55:05;9.50;99.90
5786;DHT22;2919;48.630;9.000;2023-04-24T01:57:33;9.40;99.90
5786;DHT22;2919;48.630;9.000;2023-04-24T01:59:59;9.40;99.90
5786;DHT22;2919;48.630;9.000;2023-04-24T02:02:24;9.40;99.90
5786;DHT22;2919;48.630;9.000;2023-04-24T02:04:53;9.30;99.90
5786;DHT22;2919;48.630;9.000;2023-04-24T02:07:19;9.20;99.90
5786;DHT22;2919;48.630;9.000;2023-04-24T02:09:44;9.20;99.90
5786;DHT22;2919;48.630;9.000;2023-04-24T02:12:10;9.20;99.90
5786;DHT22;2919;48.630;9.000;2023-04-24T02:14:36;9.10;99.90
5786;DHT22;2919;48.630;9.000;2023-04-24T02:17:01;9.10;99.90
5786;DHT22;2919;48.630;9.000;2023-04-24T02:19:27;9.10;99.90
5786;DHT22;2919;48.630;9.000;2023-04-24T02:21:52;9.10;99.90
5786;DHT22;2919;48.630;9.000;2023-04-24T02:24:18;9.10;99.90
5786;DHT22;2919;48.630;9.000;2023-04-24T02:26:44;9.10;99.90
5786;DHT22;2919;48.630;9.000;2023-04-24T02:29:09;9.00;99.90
5786;DHT22;2919;48.630;9.000;2023-04-24T02:31:35;9.10;99.90
5786;DHT22;2919;48.630;9.000;2023-04-24T02:34:00;9.10;99.90
5786;DHT22;2919;48.630;9.000;2023-04-24T02:36:26;9.10;99.90
5786;DHT22;2919;48.630;9.000;2023-04-24T02:38:52;9.00;99.90
5786;DHT22;2919;48.630;9.000;2023-04-24T02:41:17;9.20;99.90
5786;DHT22;2919;48.630;9.000;2023-04-24T02:43:43;9.00;99.90
5786;DHT22;2919;48.630;9.000;2023-04-24T02:46:09;9.00;99.90
5786;DHT22;2919;48.630;9.000;2023-04-24T02:48:34;9.10;99.90
5786;DHT22;2919;48.630;9.000;2023-04-24T02:51:00;9.10;99.90
5786;DHT22;2919;48.630;9.000;2023-04-24T02:53:26;9.10;99.90
5786;DHT22;2919;48.630;9.000;2023-04-24T02:55:51;9.10;99.90
5786;DHT22;2919;48.630;9.000;2023-04-24T02:58:17;9.10;99.90
5786;DHT22;2919;48.630;9.000;2023-04-24T03:00:45;9.10;99.90
5786;DHT22;2919;48.630;9.000;2023-04-24T03:03:11;9.10;99.90
5786;DHT22;2919;48.630;9.000;2023-04-24T03:05:36;9.10;99.90
5786;DHT22;2919;48.630;9.000;2023-04-24T03:08:02;9.10;99.90
5786;DHT22;2919;48.630;9.000;2023-04-24T03:10:27;9.10;99.90
5786;DHT22;2919;48.630;9.000;2023-04-24T03:12:53;9.10;99.90
5786;DHT22;2919;48.630;9.000;2023-04-24T03:15:20;9.10;99.90
5786;DHT22;2919;48.630;9.000;2023-04-24T03:17:45;9.10;99.90
5786;DHT22;2919;48.630;9.000;2023-04-24T03:20:11;9.00;99.90
5786;DHT22;2919;48.630;9.000;2023-04-24T03:22:37;9.00;99.90
5786;DHT22;2919;48.630;9.000;2023-04-24T03:25:03;9.00;99.90
5786;DHT22;2919;48.630;9.000;2023-04-24T03:27:29;9.00;99.90
5786;DHT22;2919;48.630;9.000;2023-04-24T03:29:55;8.90;99.90
5786;DHT22;2919;48.630;9.000;2023-04-24T03:32:22;8.90;99.90
5786;DHT22;2919;48.630;9.000;2023-04-24T03:34:48;8.90;99.90
5786;DHT22;2919;48.630;9.000;2023-04-24T03:37:15;8.80;99.90
5786;DHT22;2919;48.630;9.000;2023-04-24T03:39:40;8.80;99.90
5786;DHT22;2919;48.630;9.000;2023-04-24T03:42:06;8.80;99.90
5786;DHT22;2919;48.630;9.000;2023-04-24T03:44:31;8.70;99.90
5786;DHT22;2919;48.630;9.000;2023-04-24T03:46:58;8.70;99.90
5786;DHT22;2919;48.630;9.000;2023-04-24T03:49:23;8.70;99.90
5786;DHT22;2919;48.630;9.000;2023-04-24T03:51:49;8.70;99.90
5786;DHT22;2919;48.630;9.000;2023-04-24T03:54:15;8.60;99.90
5786;DHT22;2919;48.630;9.000;2023-04-24T03:56:40;8.60;99.90
5786;DHT22;2919;48.630;9.000;2023-04-24T03:59:06;8.60;99.90
5786;DHT22;2919;48.630;9.000;2023-04-24T04:01:31;8.60;99.90
5786;DHT22;2919;48.630;9.000;2023-04-24T04:03:57;8.60;99.90
5786;DHT22;2919;48.630;9.000;2023-04-24T04:06:23;8.60;99.90
5786;DHT22;2919;48.630;9.000;2023-04-24T04:08:48;8.60;99.90
5786;DHT22;2919;48.630;9.000;2023-04-24T04:11:14;8.60;99.90
5786;DHT22;2919;48.630;9.000;2023-04-24T04:13:39;8.70;99.90
5786;DHT22;2919;48.630;9.000;2023-04-24T04:16:05;8.70;99.90
5786;DHT22;2919;48.630;9.000;2023-04-24T04:18:31;8.80;99.90
5786;DHT22;2919;48.630;9.000;2023-04-24T04:20:56;8.80;99.90
5786;DHT22;2919;48.630;9.000;2023-04-24T04:23:22;8.90;99.90
5786;DHT22;2919;48.630;9.000;2023-04-24T04:25:48;8.90;99.90
5786;DHT22;2919;48.630;9.000;2023-04-24T04:28:15;8.90;99.90
5786;DHT22;2919;48.630;9.000;2023-04-24T04:30:40;8.90;99.90
5786;DHT22;2919;48.630;9.000;2023-04-24T04:33:06;8.90;99.90
5786;DHT22;2919;48.630;9.000;2023-04-24T04:35:33;8.90;99.90
5786;DHT22;2919;48.630;9.000;2023-04-24T04:37:59;9.00;99.90
5786;DHT22;2919;48.630;9.000;2023-04-24T04:40:24;8.60;99.90
5786;DHT22;2919;48.630;9.000;2023-04-24T04:42:50;8.40;99.90
5786;DHT22;2919;48.630;9.000;2023-04-24T04:45:18;8.20;99.90
5786;DHT22;2919;48.630;9.000;2023-04-24T04:47:44;8.00;99.90
5786;DHT22;2919;48.630;9.000;2023-04-24T04:50:09;8.00;99.90
5786;DHT22;2919;48.630;9.000;2023-04-24T04:52:35;7.90;99.90
5786;DHT22;2919;48.630;9.000;2023-04-24T04:55:01;7.80;99.90
5786;DHT22;2919;48.630;9.000;2023-04-24T04:57:27;7.80;99.90
5786;DHT22;2919;48.630;9.000;2023-04-24T04:59:53;7.70;99.90
5786;DHT22;2919;48.630;9.000;2023-04-24T05:02:19;7.70;99.90
5786;DHT22;2919;48.630;9.000;2023-04-24T05:04:44;7.70;99.90
5786;DHT22;2919;48.630;9.000;2023-04-24T05:07:10;7.70;99.90
5786;DHT22;2919;48.630;9.000;2023-04-24T05:09:37;7.70;99.90
5786;DHT22;2919;48.630;9.000;2023-04-24T05:12:03;7.70;99.90
5786;DHT22;2919;48.630;9.000;2023-04-24T05:14:29;7.70;99.90
5786;DHT22;2919;48.630;9.000;2023-04-24T05:16:54;7.70;99.90
5786;DHT22;2919;48.630;9.000;2023-04-24T05:19:20;7.70;99.90
5786;DHT22;2919;48.630;9.000;2023-04-24T05:21:46;7.80;99.90
5786;DHT22;2919;48.630;9.000;2023-04-24T05:24:11;7.80;99.90
5786;DHT22;2919;48.630;9.000;2023-04-24T05:26:37;7.90;99.90
5786;DHT22;2919;48.630;9.000;2023-04-24T05:29:03;7.90;99.90
5786;DHT22;2919;48.630;9.000;2023-04-24T05:31:29;7.90;99.90
5786;DHT22;2919;48.630;9.000;2023-04-24T05:33:54;7.90;99.90
5786;DHT22;2919;48.630;9.000;2023-04-24T05:36:20;7.90;99.90
5786;DHT22;2919;48.630;9.000;2023-04-24T05:38:46;8.00;99.90
5786;DHT22;2919;48.630;9.000;2023-04-24T05:41:11;8.10;99.90
5786;DHT22;2919;48.630;9.000;2023-04-24T05:43:37;8.10;99.90
5786;DHT22;2919;48.630;9.000;2023-04-24T05:46:02;8.10;99.90
5786;DHT22;2919;48.630;9.000;2023-04-24T05:48:28;8.10;99.90
5786;DHT22;2919;48.630;9.000;2023-04-24T05:50:53;8.10;99.90
5786;DHT22;2919;48.630;9.000;2023-04-24T05:53:19;8.10;99.90
5786;DHT22;2919;48.630;9.000;2023-04-24T05:55:45;8.10;99.90
5786;DHT22;2919;48.630;9.000;2023-04-24T05:58:11;8.10;99.90
5786;DHT22;2919;48.630;9.000;2023-04-24T06:00:37;8.10;99.90
5786;DHT22;2919;48.630;9.000;2023-04-24T06:03:05;8.20;99.90
5786;DHT22;2919;48.630;9.000;2023-04-24T06:05:31;8.20;99.90
5786;DHT22;2919;48.630;9.000;2023-04-24T06:07:56;8.10;99.90
5786;DHT22;2919;48.630;9.000;2023-04-24T06:10:22;8.10;99.90
5786;DHT22;2919;48.630;9.000;2023-04-24T06:12:47;8.10;99.90
5786;DHT22;2919;48.630;9.000;2023-04-24T06:15:13;8.20;99.90
5786;DHT22;2919;48.630;9.000;2023-04-24T06:17:39;8.20;99.90
5786;DHT22;2919;48.630;9.000;2023-04-24T06:20:05;8.40;99.90
5786;DHT22;2919;48.630;9.000;2023-04-24T06:22:32;8.60;99.90
5786;DHT22;2919;48.630;9.000;2023-04-24T06:24:57;8.80;99.90
5786;DHT22;2919;48.630;9.000;2023-04-24T06:27:23;8.90;99.90
5786;DHT22;2919;48.630;9.000;2023-04-24T06:29:48;9.00;99.90
5786;DHT22;2919;48.630;9.000;2023-04-24T06:32:22;9.10;99.90
5786;DHT22;2919;48.630;9.000;2023-04-24T06:34:48;9.20;99.90
5786;DHT22;2919;48.630;9.000;2023-04-24T06:37:14;9.40;99.90
5786;DHT22;2919;48.630;9.000;2023-04-24T06:39:40;9.50;99.90
5786;DHT22;2919;48.630;9.000;2023-04-24T06:42:06;9.60;99.90
5786;DHT22;2919;48.630;9.000;2023-04-24T06:44:33;9.70;99.90
5786;DHT22;2919;48.630;9.000;2023-04-24T06:47:03;9.90;99.90
5786;DHT22;2919;48.630;9.000;2023-04-24T06:49:28;9.90;99.90
5786;DHT22;2919;48.630;9.000;2023-04-24T06:51:54;9.70;99.90
5786;DHT22;2919;48.630;9.000;2023-04-24T06:54:19;9.70;99.90
5786;DHT22;2919;48.630;9.000;2023-04-24T06:56:45;9.60;99.90
5786;DHT22;2919;48.630;9.000;2023-04-24T06:59:13;9.60;99.90
5786;DHT22;2919;48.630;9.000;2023-04-24T07:01:38;9.60;99.90
5786;DHT22;2919;48.630;9.000;2023-04-24T07:04:04;9.60;99.90
5786;DHT22;2919;48.630;9.000;2023-04-24T07:06:29;9.60;99.90
5786;DHT22;2919;48.630;9.000;2023-04-24T07:08:57;9.50;99.90
5786;DHT22;2919;48.630;9.000;2023-04-24T07:11:23;9.30;99.90
5786;DHT22;2919;48.630;9.000;2023-04-24T07:13:48;9.10;99.90
5786;DHT22;2919;48.630;9.000;2023-04-24T07:16:14;8.90;99.90
5786;DHT22;2919;48.630;9.000;2023-04-24T07:18:40;8.60;99.90
5786;DHT22;2919;48.630;9.000;2023-04-24T07:21:05;8.50;99.90
5786;DHT22;2919;48.630;9.000;2023-04-24T07:23:31;8.60;99.90
5786;DHT22;2919;48.630;9.000;2023-04-24T07:25:57;8.70;99.90
5786;DHT22;2919;48.630;9.000;2023-04-24T07:28:23;9.00;99.90
5786;DHT22;2919;48.630;9.000;2023-04-24T07:30:48;9.00;99.90
5786;DHT22;2919;48.630;9.000;2023-04-24T07:33:14;9.30;99.90
5786;DHT22;2919;48.630;9.000;2023-04-24T07:35:39;9.70;99.90
5786;DHT22;2919;48.630;9.000;2023-04-24T07:38:05;10.30;99.90
5786;DHT22;2919;48.630;9.000;2023-04-24T07:40:31;10.60;99.90
5786;DHT22;2919;48.630;9.000;2023-04-24T07:42:56;10.70;99.90
5786;DHT22;2919;48.630;9.000;2023-04-24T07:45:22;11.00;99.90
5786;DHT22;2919;48.630;9.000;2023-04-24T07:47:50;11.10;99.90
5786;DHT22;2919;48.630;9.000;2023-04-24T07:50:16;11.40;99.90
5786;DHT22;2919;48.630;9.000;2023-04-24T07:52:41;11.40;99.90
5786;DHT22;2919;48.630;9.000;2023-04-24T07:55:07;11.30;99.90
5786;DHT22;2919;48.630;9.000;2023-04-24T07:57:33;11.20;99.90
5786;DHT22;2919;48.630;9.000;2023-04-24T07:59:59;11.40;99.90
5786;DHT22;2919;48.630;9.000;2023-04-24T08:02:24;11.40;99.90
5786;DHT22;2919;48.630;9.000;2023-04-24T08:04:55;11.10;99.90
5786;DHT22;2919;48.630;9.000;2023-04-24T08:07:21;10.90;99.90
5786;DHT22;2919;48.630;9.000;2023-04-24T08:09:47;10.70;99.90
5786;DHT22;2919;48.630;9.000;2023-04-24T08:12:12;10.50;99.90
5786;DHT22;2919;48.630;9.000;2023-04-24T08:14:38;10.30;99.90
5786;DHT22;2919;48.630;9.000;2023-04-24T08:17:03;10.10;99.90
5786;DHT22;2919;48.630;9.000;2023-04-24T08:19:29;10.00;99.90
5786;DHT22;2919;48.630;9.000;2023-04-24T08:21:55;10.10;99.90
5786;DHT22;2919;48.630;9.000;2023-04-24T08:24:21;10.20;99.90
5786;DHT22;2919;48.630;9.000;2023-04-24T08:26:47;10.30;99.90
5786;DHT22;2919;48.630;9.000;2023-04-24T08:29:15;10.40;99.90
5786;DHT22;2919;48.630;9.000;2023-04-24T08:31:41;10.80;99.90
5786;DHT22;2919;48.630;9.000;2023-04-24T08:34:07;11.20;99.90
5786;DHT22;2919;48.630;9.000;2023-04-24T08:36:32;12.20;99.70
5786;DHT22;2919;48.630;9.000;2023-04-24T08:38:58;12.40;99.40
5786;DHT22;2919;48.630;9.000;2023-04-24T08:41:24;12.20;96.70
5786;DHT22;2919;48.630;9.000;2023-04-24T08:43:51;11.90;97.60
5786;DHT22;2919;48.630;9.000;2023-04-24T08:46:18;11.50;96.20
5786;DHT22;2919;48.630;9.000;2023-04-24T08:48:45;11.00;97.30
5786;DHT22;2919;48.630;9.000;2023-04-24T08:51:11;10.60;98.00
5786;DHT22;2919;48.630;9.000;2023-04-24T08:53:37;10.50;98.10
5786;DHT22;2919;48.630;9.000;2023-04-24T08:56:04;10.60;98.70
5786;DHT22;2919;48.630;9.000;2023-04-24T08:58:31;10.70;98.30
5786;DHT22;2919;48.630;9.000;2023-04-24T09:00:57;10.80;98.80
5786;DHT22;2919;48.630;9.000;2023-04-24T09:03:24;10.70;97.60
5786;DHT22;2919;48.630;9.000;2023-04-24T09:05:50;10.60;97.90
5786;DHT22;2919;48.630;9.000;2023-04-24T09:08:18;11.10;97.40
5786;DHT22;2919;48.630;9.000;2023-04-24T09:10:44;11.20;95.70
5786;DHT22;2919;48.630;9.000;2023-04-24T09:13:10;11.40;95.00
5786;DHT22;2919;48.630;9.000;2023-04-24T09:15:37;11.90;94.60
5786;DHT22;2919;48.630;9.000;2023-04-24T09:18:04;12.30;93.80
5786;DHT22;2919;48.630;9.000;2023-04-24T09:20:31;12.80;93.40
5786;DHT22;2919;48.630;9.000;2023-04-24T09:22:57;12.90;93.50
5786;DHT22;2919;48.630;9.000;2023-04-24T09:25:34;13.00;93.70
5786;DHT22;2919;48.630;9.000;2023-04-24T09:28:02;12.90;92.10
5786;DHT22;2919;48.630;9.000;2023-04-24T09:30:28;13.00;92.00
5786;DHT22;2919;48.630;9.000;2023-04-24T09:33:13;13.10;90.80
5786;DHT22;2919;48.630;9.000;2023-04-24T09:35:49;13.00;88.60
5786;DHT22;2919;48.630;9.000;2023-04-24T09:38:15;13.10;86.90
5786;DHT22;2919;48.630;9.000;2023-04-24T09:40:40;13.40;89.50
5786;DHT22;2919;48.630;9.000;2023-04-24T09:43:10;13.80;85.40
5786;DHT22;2919;48.630;9.000;2023-04-24T09:45:37;13.70;86.70
5786;DHT22;2919;48.630;9.000;2023-04-24T09:48:03;13.90;84.90
5786;DHT22;2919;48.630;9.000;2023-04-24T09:50:30;14.00;86.70
5786;DHT22;2919;48.630;9.000;2023-04-24T09:53:04;13.80;86.50
5786;DHT22;2919;48.630;9.000;2023-04-24T09:55:31;13.10;85.10
5786;DHT22;2919;48.630;9.000;2023-04-24T09:58:01;12.40;89.20
5786;DHT22;2919;48.630;9.000;2023-04-24T10:00:32;12.30;88.70
5786;DHT22;2919;48.630;9.000;2023-04-24T10:02:59;12.30;88.60
5786;DHT22;2919;48.630;9.000;2023-04-24T10:05:46;12.60;88.50
5786;DHT22;2919;48.630;9.000;2023-04-24T10:08:12;12.50;90.50
5786;DHT22;2919;48.630;9.000;2023-04-24T10:13:07;12.60;90.40
5786;DHT22;2919;48.630;9.000;2023-04-24T10:15:33;12.80;86.80
5786;DHT22;2919;48.630;9.000;2023-04-24T10:18:00;12.60;87.50
5786;DHT22;2919;48.630;9.000;2023-04-24T10:20:28;12.50;89.00
5786;DHT22;2919;48.630;9.000;2023-04-24T10:22:56;12.40;90.00
5786;DHT22;2919;48.630;9.000;2023-04-24T10:25:24;12.20;88.80
5786;DHT22;2919;48.630;9.000;2023-04-24T10:27:51;12.00;89.90
5786;DHT22;2919;48.630;9.000;2023-04-24T10:30:19;11.80;89.70
5786;DHT22;2919;48.630;9.000;2023-04-24T10:32:45;11.70;90.80
5786;DHT22;2919;48.630;9.000;2023-04-24T10:35:14;11.60;91.70
5786;DHT22;2919;48.630;9.000;2023-04-24T10:40:09;11.40;92.50
5786;DHT22;2919;48.630;9.000;2023-04-24T10:42:35;11.30;91.80
5786;DHT22;2919;48.630;9.000;2023-04-24T10:45:06;11.30;92.40
5786;DHT22;2919;48.630;9.000;2023-04-24T10:47:40;11.30;91.70
5786;DHT22;2919;48.630;9.000;2023-04-24T10:50:15;11.40;91.60
5786;DHT22;2919;48.630;9.000;2023-04-24T10:52:48;11.30;92.00
5786;DHT22;2919;48.630;9.000;2023-04-24T10:55:16;11.20;92.70
5786;DHT22;2919;48.630;9.000;2023-04-24T10:58:04;11.10;91.90
5786;DHT22;2919;48.630;9.000;2023-04-24T11:00:30;11.40;94.00
5786;DHT22;2919;48.630;9.000;2023-04-24T11:02:57;11.80;93.40
5786;DHT22;2919;48.630;9.000;2023-04-24T11:05:49;12.10;91.20
5786;DHT22;2919;48.630;9.000;2023-04-24T11:08:22;12.30;92.70
5786;DHT22;2919;48.630;9.000;2023-04-24T11:11:13;12.50;91.70
5786;DHT22;2919;48.630;9.000;2023-04-24T11:19:05;12.10;92.00
5786;DHT22;2919;48.630;9.000;2023-04-24T11:21:38;12.00;91.10
5786;DHT22;2919;48.630;9.000;2023-04-24T11:32:36;11.30;92.60
5786;DHT22;2919;48.630;9.000;2023-04-24T11:37:40;11.30;93.90
5786;DHT22;2919;48.630;9.000;2023-04-24T11:40:08;11.50;92.60
5786;DHT22;2919;48.630;9.000;2023-04-24T11:42:38;11.70;93.20
5786;DHT22;2919;48.630;9.000;2023-04-24T11:45:24;12.10;92.40
5786;DHT22;2919;48.630;9.000;2023-04-24T11:47:50;12.20;92.00
5786;DHT22;2919;48.630;9.000;2023-04-24T11:50:19;12.10;92.60
5786;DHT22;2919;48.630;9.000;2023-04-24T11:52:47;12.00;92.60
5786;DHT22;2919;48.630;9.000;2023-04-24T11:57:46;11.80;93.60
5786;DHT22;2919;48.630;9.000;2023-04-24T12:00:20;11.60;93.10
5786;DHT22;2919;48.630;9.000;2023-04-24T12:02:47;11.50;93.00
5786;DHT22;2919;48.630;9.000;2023-04-24T12:05:26;11.40;92.50
5786;DHT22;2919;48.630;9.000;2023-04-24T12:07:53;11.10;91.90
5786;DHT22;2919;48.630;9.000;2023-04-24T12:10:22;11.10;92.40
5786;DHT22;2919;48.630;9.000;2023-04-24T12:12:49;11.00;92.80
5786;DHT22;2919;48.630;9.000;2023-04-24T12:15:17;11.00;93.20
5786;DHT22;2919;48.630;9.000;2023-04-24T12:17:44;11.10;93.50
5786;DHT22;2919;48.630;9.000;2023-04-24T12:20:10;11.20;94.10
5786;DHT22;2919;48.630;9.000;2023-04-24T12:22:56;11.10;94.10
5786;DHT22;2919;48.630;9.000;2023-04-24T12:25:27;11.10;92.90
5786;DHT22;2919;48.630;9.000;2023-04-24T12:30:47;11.10;94.20
5786;DHT22;2919;48.630;9.000;2023-04-24T12:33:20;11.30;93.40
5786;DHT22;2919;48.630;9.000;2023-04-24T12:35:45;11.10;93.60
5786;DHT22;2919;48.630;9.000;2023-04-24T12:38:13;11.10;94.70
5786;DHT22;2919;48.630;9.000;2023-04-24T12:40:40;11.20;95.60
5786;DHT22;2919;48.630;9.000;2023-04-24T12:43:17;11.10;97.30
5786;DHT22;2919;48.630;9.000;2023-04-24T12:45:43;11.20;95.70
5786;DHT22;2919;48.630;9.000;2023-04-24T12:48:10;11.10;95.90
5786;DHT22;2919;48.630;9.000;2023-04-24T12:50:36;11.10;95.80
5786;DHT22;2919;48.630;9.000;2023-04-24T12:53:01;11.40;97.30
5786;DHT22;2919;48.630;9.000;2023-04-24T12:55:27;11.60;95.60
5786;DHT22;2919;48.630;9.000;2023-04-24T12:57:53;11.60;95.10
5786;DHT22;2919;48.630;9.000;2023-04-24T13:00:20;11.40;94.10
5786;DHT22;2919;48.630;9.000;2023-04-24T13:02:46;11.30;94.60
5786;DHT22;2919;48.630;9.000;2023-04-24T13:05:12;11.30;94.70
5786;DHT22;2919;48.630;9.000;2023-04-24T13:07:39;11.30;94.40
5786;DHT22;2919;48.630;9.000;2023-04-24T13:10:05;11.30;93.90
5786;DHT22;2919;48.630;9.000;2023-04-24T13:12:31;11.20;93.70
5786;DHT22;2919;48.630;9.000;2023-04-24T13:14:58;11.20;93.80
5786;DHT22;2919;48.630;9.000;2023-04-24T13:17:24;11.20;93.80
5786;DHT22;2919;48.630;9.000;2023-04-24T13:19:51;10.90;93.30
5786;DHT22;2919;48.630;9.000;2023-04-24T13:22:17;11.00;94.20
5786;DHT22;2919;48.630;9.000;2023-04-24T13:24:46;10.90;93.90
5786;DHT22;2919;48.630;9.000;2023-04-24T13:27:15;10.80;94.30
5786;DHT22;2919;48.630;9.000;2023-04-24T13:29:41;10.90;93.10
5786;DHT22;2919;48.630;9.000;2023-04-24T13:32:07;10.90;93.40
5786;DHT22;2919;48.630;9.000;2023-04-24T13:34:33;11.00;93.70
5786;DHT22;2919;48.630;9.000;2023-04-24T13:37:00;11.10;93.10
5786;DHT22;2919;48.630;9.000;2023-04-24T13:39:26;11.20;92.90
5786;DHT22;2919;48.630;9.000;2023-04-24T13:41:52;11.00;93.30
5786;DHT22;2919;48.630;9.000;2023-04-24T13:44:19;10.90;92.50
5786;DHT22;2919;48.630;9.000;2023-04-24T13:46:47;10.70;93.10
5786;DHT22;2919;48.630;9.000;2023-04-24T13:49:14;10.70;92.70
5786;DHT22;2919;48.630;9.000;2023-04-24T13:51:40;10.70;93.50
5786;DHT22;2919;48.630;9.000;2023-04-24T13:54:06;10.70;93.80
5786;DHT22;2919;48.630;9.000;2023-04-24T13:56:32;10.70;93.80
5786;DHT22;2919;48.630;9.000;2023-04-24T13:58:58;10.60;94.00
5786;DHT22;2919;48.630;9.000;2023-04-24T14:01:23;10.60;93.20
5786;DHT22;2919;48.630;9.000;2023-04-24T14:03:53;10.70;93.90
5786;DHT22;2919;48.630;9.000;2023-04-24T14:06:19;10.80;94.40
5786;DHT22;2919;48.630;9.000;2023-04-24T14:08:45;10.80;93.80
5786;DHT22;2919;48.630;9.000;2023-04-24T14:11:11;10.80;93.60
5786;DHT22;2919;48.630;9.000;2023-04-24T14:13:37;10.90;93.60
5786;DHT22;2919;48.630;9.000;2023-04-24T14:16:04;10.90;93.50
5786;DHT22;2919;48.630;9.000;2023-04-24T14:18:29;10.90;93.00
5786;DHT22;2919;48.630;9.000;2023-04-24T14:20:55;11.00;92.70
5786;DHT22;2919;48.630;9.000;2023-04-24T14:23:21;11.00;93.00
5786;DHT22;2919;48.630;9.000;2023-04-24T14:25:46;11.00;92.60
5786;DHT22;2919;48.630;9.000;2023-04-24T14:28:16;11.00;93.00
5786;DHT22;2919;48.630;9.000;2023-04-24T14:30:42;11.10;93.30
5786;DHT22;2919;48.630;9.000;2023-04-24T14:33:07;11.10;93.30
5786;DHT22;2919;48.630;9.000;2023-04-24T14:35:33;11.20;93.30
5786;DHT22;2919;48.630;9.000;2023-04-24T14:38:00;11.30;92.50
5786;DHT22;2919;48.630;9.000;2023-04-24T14:40:26;11.30;91.70
5786;DHT22;2919;48.630;9.000;2023-04-24T14:42:51;11.20;92.10
5786;DHT22;2919;48.630;9.000;2023-04-24T14:45:18;11.10;92.80
5786;DHT22;2919;48.630;9.000;2023-04-24T14:47:44;11.20;92.70
5786;DHT22;2919;48.630;9.000;2023-04-24T14:50:10;11.20;91.60
5786;DHT22;2919;48.630;9.000;2023-04-24T14:52:38;11.10;91.90
5786;DHT22;2919;48.630;9.000;2023-04-24T14:55:04;11.10;93.10
5786;DHT22;2919;48.630;9.000;2023-04-24T14:57:30;11.20;92.90
5786;DHT22;2919;48.630;9.000;2023-04-24T14:59:55;11.20;93.70
5786;DHT22;2919;48.630;9.000;2023-04-24T15:02:21;11.20;92.60
5786;DHT22;2919;48.630;9.000;2023-04-24T15:04:47;11.20;93.70
5786;DHT22;2919;48.630;9.000;2023-04-24T15:07:12;11.30;92.80
5786;DHT22;2919;48.630;9.000;2023-04-24T15:09:38;11.30;92.40
5786;DHT22;2919;48.630;9.000;2023-04-24T15:12:03;11.30;92.50
5786;DHT22;2919;48.630;9.000;2023-04-24T15:14:29;11.20;92.10
5786;DHT22;2919;48.630;9.000;2023-04-24T15:16:55;11.20;93.00
5786;DHT22;2919;48.630;9.000;2023-04-24T15:19:21;11.10;92.80
5786;DHT22;2919;48.630;9.000;2023-04-24T15:21:46;11.00;92.50
5786;DHT22;2919;48.630;9.000;2023-04-24T15:24:12;11.00;92.60
5786;DHT22;2919;48.630;9.000;2023-04-24T15:26:38;10.80;93.20
5786;DHT22;2919;48.630;9.000;2023-04-24T15:29:03;10.90;93.80
5786;DHT22;2919;48.630;9.000;2023-04-24T15:31:29;10.90;93.30
5786;DHT22;2919;48.630;9.000;2023-04-24T15:33:55;11.00;92.90
5786;DHT22;2919;48.630;9.000;2023-04-24T15:36:20;11.00;93.70
5786;DHT22;2919;48.630;9.000;2023-04-24T15:38:46;11.10;93.50
5786;DHT22;2919;48.630;9.000;2023-04-24T15:41:12;11.00;92.00
5786;DHT22;2919;48.630;9.000;2023-04-24T15:43:38;11.10;92.60
5786;DHT22;2919;48.630;9.000;2023-04-24T15:46:06;11.00;93.00
5786;DHT22;2919;48.630;9.000;2023-04-24T15:48:32;11.10;93.60
5786;DHT22;2919;48.630;9.000;2023-04-24T15:50:58;11.10;93.50
5786;DHT22;2919;48.630;9.000;2023-04-24T15:53:24;11.10;93.30
5786;DHT22;2919;48.630;9.000;2023-04-24T15:55:51;11.10;93.80
5786;DHT22;2919;48.630;9.000;2023-04-24T15:58:18;11.20;93.30
5786;DHT22;2919;48.630;9.000;2023-04-24T16:00:44;11.20;93.40
5786;DHT22;2919;48.630;9.000;2023-04-24T16:03:11;11.20;92.90
5786;DHT22;2919;48.630;9.000;2023-04-24T16:05:36;11.10;92.90
5786;DHT22;2919;48.630;9.000;2023-04-24T16:08:02;11.10;93.10
5786;DHT22;2919;48.630;9.000;2023-04-24T16:10:27;11.10;92.80
5786;DHT22;2919;48.630;9.000;2023-04-24T16:12:53;11.10;93.80
5786;DHT22;2919;48.630;9.000;2023-04-24T16:15:20;11.10;92.90
5786;DHT22;2919;48.630;9.000;2023-04-24T16:17:46;11.10;93.00
5786;DHT22;2919;48.630;9.000;2023-04-24T16:20:12;11.10;93.30
5786;DHT22;2919;48.630;9.000;2023-04-24T16:22:39;11.10;93.10
5786;DHT22;2919;48.630;9.000;2023-04-24T16:25:05;11.10;93.20
5786;DHT22;2919;48.630;9.000;2023-04-24T16:27:31;11.10;92.40
5786;DHT22;2919;48.630;9.000;2023-04-24T16:29:58;11.30;92.70
5786;DHT22;2919;48.630;9.000;2023-04-24T16:32:23;11.00;93.00